sensor_id;sensor_type;location;lat;lon;timestamp;P1;durP1;ratioP1;P2;durP2;ratioP2
72379;SDS011;60354;47.798;12.472;2023-09-07T00:01:53;14.48;;;3.00;;
72379;SDS011;60354;47.798;12.472;2023-09-07T00:04:19;3.58;;;2.47;;
72379;SDS011;60354;47.798;12.472;2023-09-07T00:06:46;5.55;;;2.38;;
72379;SDS011;60354;47.798;12.472;2023-09-07T00:09:11;4.85;;;2.35;;
72379;SDS011;60354;47.798;12.472;2023-09-07T00:11:38;3.13;;;2.30;;
72379;SDS011;60354;47.798;12.472;2023-09-07T00:14:03;2.75;;;2.03;;
72379;SDS011;60354;47.798;12.472;2023-09-07T00:16:32;2.78;;;2.17;;
72379;SDS011;60354;47.798;12.472;2023-09-07T00:19:00;2.72;;;2.20;;
72379;SDS011;60354;47.798;12.472;2023-09-07T00:21:26;4.65;;;2.70;;
72379;SDS011;60354;47.798;12.472;2023-09-07T00:23:51;2.80;;;2.40;;
72379;SDS011;60354;47.798;12.472;2023-09-07T00:26:17;4.90;;;2.70;;
72379;SDS011;60354;47.798;12.472;2023-09-07T00:28:44;3.65;;;2.50;;
72379;SDS011;60354;47.798;12.472;2023-09-07T00:31:09;3.60;;;2.20;;
72379;SDS011;60354;47.798;12.472;2023-09-07T00:33:35;3.83;;;2.40;;
72379;SDS011;60354;47.798;12.472;2023-09-07T00:36:01;4.70;;;2.28;;
72379;SDS011;60354;47.798;12.472;2023-09-07T00:38:28;4.45;;;2.85;;
72379;SDS011;60354;47.798;12.472;2023-09-07T00:40:54;3.70;;;2.70;;
72379;SDS011;60354;47.798;12.472;2023-09-07T00:43:19;5.40;;;3.03;;
72379;SDS011;60354;47.798;12.472;2023-09-07T00:45:45;4.95;;;2.78;;
72379;SDS011;60354;47.798;12.472;2023-09-07T00:48:13;3.88;;;2.60;;
72379;SDS011;60354;47.798;12.472;2023-09-07T00:50:41;5.35;;;3.08;;
72379;SDS011;60354;47.798;12.472;2023-09-07T00:53:07;4.93;;;3.30;;
72379;SDS011;60354;47.798;12.472;2023-09-07T00:55:33;4.43;;;3.00;;
72379;SDS011;60354;47.798;12.472;2023-09-07T00:58:00;4.15;;;2.95;;
72379;SDS011;60354;47.798;12.472;2023-09-07T01:00:28;4.60;;;2.83;;
72379;SDS011;60354;47.798;12.472;2023-09-07T01:02:54;5.93;;;2.80;;
72379;SDS011;60354;47.798;12.472;2023-09-07T01:05:22;6.32;;;2.88;;
72379;SDS011;60354;47.798;12.472;2023-09-07T01:07:57;4.95;;;2.60;;
72379;SDS011;60354;47.798;12.472;2023-09-07T01:10:28;3.75;;;2.95;;
72379;SDS011;60354;47.798;12.472;2023-09-07T01:12:53;5.40;;;2.88;;
72379;SDS011;60354;47.798;12.472;2023-09-07T01:15:19;3.78;;;3.10;;
72379;SDS011;60354;47.798;12.472;2023-09-07T01:17:44;6.07;;;2.72;;
72379;SDS011;60354;47.798;12.472;2023-09-07T01:20:10;7.65;;;3.13;;
72379;SDS011;60354;47.798;12.472;2023-09-07T01:22:38;4.78;;;2.53;;
72379;SDS011;60354;47.798;12.472;2023-09-07T01:25:04;3.60;;;2.50;;
72379;SDS011;60354;47.798;12.472;2023-09-07T01:27:32;3.85;;;2.58;;
72379;SDS011;60354;47.798;12.472;2023-09-07T01:29:58;3.97;;;3.10;;
72379;SDS011;60354;47.798;12.472;2023-09-07T01:32:24;3.65;;;2.70;;
72379;SDS011;60354;47.798;12.472;2023-09-07T01:34:53;7.15;;;2.67;;
72379;SDS011;60354;47.798;12.472;2023-09-07T01:37:21;4.07;;;2.80;;
72379;SDS011;60354;47.798;12.472;2023-09-07T01:39:47;3.22;;;2.33;;
72379;SDS011;60354;47.798;12.472;2023-09-07T01:42:14;4.25;;;2.33;;
72379;SDS011;60354;47.798;12.472;2023-09-07T01:44:39;2.95;;;2.20;;
72379;SDS011;60354;47.798;12.472;2023-09-07T01:47:05;3.03;;;2.40;;
72379;SDS011;60354;47.798;12.472;2023-09-07T01:49:30;4.60;;;2.55;;
72379;SDS011;60354;47.798;12.472;2023-09-07T01:51:56;3.58;;;2.55;;
72379;SDS011;60354;47.798;12.472;2023-09-07T01:54:22;5.57;;;2.70;;
72379;SDS011;60354;47.798;12.472;2023-09-07T01:56:47;4.57;;;2.83;;
72379;SDS011;60354;47.798;12.472;2023-09-07T01:59:13;3.05;;;2.42;;
72379;SDS011;60354;47.798;12.472;2023-09-07T02:01:38;3.45;;;2.90;;
72379;SDS011;60354;47.798;12.472;2023-09-07T02:04:05;6.35;;;2.92;;
72379;SDS011;60354;47.798;12.472;2023-09-07T02:06:31;3.25;;;2.80;;
72379;SDS011;60354;47.798;12.472;2023-09-07T02:08:56;3.35;;;2.83;;
72379;SDS011;60354;47.798;12.472;2023-09-07T02:11:22;4.15;;;2.88;;
72379;SDS011;60354;47.798;12.472;2023-09-07T02:13:48;4.10;;;2.55;;
72379;SDS011;60354;47.798;12.472;2023-09-07T02:16:14;5.35;;;2.65;;
72379;SDS011;60354;47.798;12.472;2023-09-07T02:18:39;3.88;;;2.80;;
72379;SDS011;60354;47.798;12.472;2023-09-07T02:21:10;5.13;;;2.88;;
72379;SDS011;60354;47.798;12.472;2023-09-07T02:23:36;4.25;;;2.72;;
72379;SDS011;60354;47.798;12.472;2023-09-07T02:26:02;4.88;;;2.80;;
72379;SDS011;60354;47.798;12.472;2023-09-07T02:28:28;4.38;;;3.00;;
72379;SDS011;60354;47.798;12.472;2023-09-07T02:30:54;5.57;;;2.95;;
72379;SDS011;60354;47.798;12.472;2023-09-07T02:33:19;5.65;;;2.60;;
72379;SDS011;60354;47.798;12.472;2023-09-07T02:35:47;3.90;;;2.60;;
72379;SDS011;60354;47.798;12.472;2023-09-07T02:38:13;3.17;;;2.60;;
72379;SDS011;60354;47.798;12.472;2023-09-07T02:40:40;4.45;;;2.63;;
72379;SDS011;60354;47.798;12.472;2023-09-07T02:43:09;3.72;;;2.60;;
72379;SDS011;60354;47.798;12.472;2023-09-07T02:45:37;3.28;;;2.65;;
72379;SDS011;60354;47.798;12.472;2023-09-07T02:48:04;4.80;;;2.70;;
72379;SDS011;60354;47.798;12.472;2023-09-07T02:50:31;3.35;;;2.55;;
72379;SDS011;60354;47.798;12.472;2023-09-07T02:52:57;4.68;;;2.65;;
72379;SDS011;60354;47.798;12.472;2023-09-07T02:55:23;3.85;;;2.65;;
72379;SDS011;60354;47.798;12.472;2023-09-07T02:57:49;3.00;;;2.60;;
72379;SDS011;60354;47.798;12.472;2023-09-07T03:00:14;2.78;;;2.22;;
72379;SDS011;60354;47.798;12.472;2023-09-07T03:02:43;2.88;;;2.28;;
72379;SDS011;60354;47.798;12.472;2023-09-07T03:05:09;3.25;;;2.30;;
72379;SDS011;60354;47.798;12.472;2023-09-07T03:07:35;4.20;;;2.45;;
72379;SDS011;60354;47.798;12.472;2023-09-07T03:10:01;4.65;;;2.55;;
72379;SDS011;60354;47.798;12.472;2023-09-07T03:12:28;5.05;;;2.58;;
72379;SDS011;60354;47.798;12.472;2023-09-07T03:14:53;2.88;;;2.40;;
72379;SDS011;60354;47.798;12.472;2023-09-07T03:17:19;3.22;;;2.60;;
72379;SDS011;60354;47.798;12.472;2023-09-07T03:19:48;2.92;;;2.47;;
72379;SDS011;60354;47.798;12.472;2023-09-07T03:22:14;3.63;;;2.40;;
72379;SDS011;60354;47.798;12.472;2023-09-07T03:24:40;2.88;;;2.30;;
72379;SDS011;60354;47.798;12.472;2023-09-07T03:27:06;3.88;;;2.40;;
72379;SDS011;60354;47.798;12.472;2023-09-07T03:29:31;4.57;;;2.50;;
72379;SDS011;60354;47.798;12.472;2023-09-07T03:32:02;2.95;;;2.50;;
72379;SDS011;60354;47.798;12.472;2023-09-07T03:34:28;4.53;;;2.40;;
72379;SDS011;60354;47.798;12.472;2023-09-07T03:36:54;3.17;;;2.40;;
72379;SDS011;60354;47.798;12.472;2023-09-07T03:39:19;4.53;;;2.42;;
72379;SDS011;60354;47.798;12.472;2023-09-07T03:41:48;3.50;;;2.20;;
72379;SDS011;60354;47.798;12.472;2023-09-07T03:44:14;3.50;;;2.25;;
72379;SDS011;60354;47.798;12.472;2023-09-07T03:46:39;3.00;;;2.42;;
72379;SDS011;60354;47.798;12.472;2023-09-07T03:49:05;3.53;;;2.50;;
72379;SDS011;60354;47.798;12.472;2023-09-07T03:51:31;3.20;;;2.33;;
72379;SDS011;60354;47.798;12.472;2023-09-07T03:53:57;5.60;;;2.50;;
72379;SDS011;60354;47.798;12.472;2023-09-07T03:56:22;3.75;;;2.30;;
72379;SDS011;60354;47.798;12.472;2023-09-07T03:58:48;3.83;;;2.40;;
72379;SDS011;60354;47.798;12.472;2023-09-07T04:01:14;4.43;;;2.20;;
72379;SDS011;60354;47.798;12.472;2023-09-07T04:03:40;4.05;;;2.25;;
72379;SDS011;60354;47.798;12.472;2023-09-07T04:06:07;4.05;;;2.20;;
72379;SDS011;60354;47.798;12.472;2023-09-07T04:08:32;3.10;;;2.15;;
72379;SDS011;60354;47.798;12.472;2023-09-07T04:11:02;3.75;;;2.50;;
72379;SDS011;60354;47.798;12.472;2023-09-07T04:13:29;4.05;;;2.50;;
72379;SDS011;60354;47.798;12.472;2023-09-07T04:15:54;6.80;;;2.58;;
72379;SDS011;60354;47.798;12.472;2023-09-07T04:18:20;3.28;;;2.40;;
72379;SDS011;60354;47.798;12.472;2023-09-07T04:20:45;5.65;;;2.60;;
72379;SDS011;60354;47.798;12.472;2023-09-07T04:23:11;2.97;;;2.50;;
72379;SDS011;60354;47.798;12.472;2023-09-07T04:25:37;3.58;;;2.42;;
72379;SDS011;60354;47.798;12.472;2023-09-07T04:28:04;3.47;;;2.50;;
72379;SDS011;60354;47.798;12.472;2023-09-07T04:30:31;4.90;;;2.28;;
72379;SDS011;60354;47.798;12.472;2023-09-07T04:32:58;4.60;;;2.90;;
72379;SDS011;60354;47.798;12.472;2023-09-07T04:35:29;5.15;;;2.80;;
72379;SDS011;60354;47.798;12.472;2023-09-07T04:37:56;3.25;;;2.55;;
72379;SDS011;60354;47.798;12.472;2023-09-07T04:40:22;5.03;;;2.60;;
72379;SDS011;60354;47.798;12.472;2023-09-07T04:42:49;5.47;;;2.35;;
72379;SDS011;60354;47.798;12.472;2023-09-07T04:45:14;3.08;;;2.47;;
72379;SDS011;60354;47.798;12.472;2023-09-07T04:47:40;4.10;;;2.88;;
72379;SDS011;60354;47.798;12.472;2023-09-07T04:50:05;3.25;;;2.58;;
72379;SDS011;60354;47.798;12.472;2023-09-07T04:52:32;4.63;;;2.72;;
72379;SDS011;60354;47.798;12.472;2023-09-07T04:54:59;5.78;;;2.50;;
72379;SDS011;60354;47.798;12.472;2023-09-07T04:57:24;5.70;;;2.50;;
72379;SDS011;60354;47.798;12.472;2023-09-07T04:59:50;3.00;;;2.28;;
72379;SDS011;60354;47.798;12.472;2023-09-07T05:02:15;3.10;;;2.60;;
72379;SDS011;60354;47.798;12.472;2023-09-07T05:04:42;4.18;;;2.50;;
72379;SDS011;60354;47.798;12.472;2023-09-07T05:07:09;3.88;;;2.70;;
72379;SDS011;60354;47.798;12.472;2023-09-07T05:09:34;5.35;;;2.60;;
72379;SDS011;60354;47.798;12.472;2023-09-07T05:12:00;9.68;;;3.00;;
72379;SDS011;60354;47.798;12.472;2023-09-07T05:14:25;3.92;;;2.75;;
72379;SDS011;60354;47.798;12.472;2023-09-07T05:16:51;4.00;;;2.85;;
72379;SDS011;60354;47.798;12.472;2023-09-07T05:19:17;3.78;;;2.63;;
72379;SDS011;60354;47.798;12.472;2023-09-07T05:21:44;4.03;;;2.83;;
72379;SDS011;60354;47.798;12.472;2023-09-07T05:24:12;4.85;;;3.00;;
72379;SDS011;60354;47.798;12.472;2023-09-07T05:26:38;8.27;;;2.97;;
72379;SDS011;60354;47.798;12.472;2023-09-07T05:29:05;3.95;;;2.90;;
72379;SDS011;60354;47.798;12.472;2023-09-07T05:31:31;5.25;;;2.95;;
72379;SDS011;60354;47.798;12.472;2023-09-07T05:33:56;5.63;;;3.25;;
72379;SDS011;60354;47.798;12.472;2023-09-07T05:36:22;4.88;;;3.03;;
72379;SDS011;60354;47.798;12.472;2023-09-07T05:38:47;5.65;;;3.20;;
72379;SDS011;60354;47.798;12.472;2023-09-07T05:41:13;7.13;;;3.33;;
72379;SDS011;60354;47.798;12.472;2023-09-07T05:43:38;5.28;;;3.30;;
72379;SDS011;60354;47.798;12.472;2023-09-07T05:46:04;4.00;;;3.20;;
72379;SDS011;60354;47.798;12.472;2023-09-07T05:48:30;6.63;;;3.30;;
72379;SDS011;60354;47.798;12.472;2023-09-07T05:50:56;4.90;;;3.25;;
72379;SDS011;60354;47.798;12.472;2023-09-07T05:53:22;3.65;;;3.22;;
72379;SDS011;60354;47.798;12.472;2023-09-07T05:55:47;4.97;;;3.40;;
72379;SDS011;60354;47.798;12.472;2023-09-07T05:58:13;6.63;;;3.70;;
72379;SDS011;60354;47.798;12.472;2023-09-07T06:00:42;4.95;;;3.10;;
72379;SDS011;60354;47.798;12.472;2023-09-07T06:03:08;5.70;;;3.55;;
72379;SDS011;60354;47.798;12.472;2023-09-07T06:05:34;4.75;;;3.30;;
72379;SDS011;60354;47.798;12.472;2023-09-07T06:08:01;4.85;;;3.42;;
72379;SDS011;60354;47.798;12.472;2023-09-07T06:10:28;9.82;;;3.55;;
72379;SDS011;60354;47.798;12.472;2023-09-07T06:12:55;6.68;;;3.92;;
72379;SDS011;60354;47.798;12.472;2023-09-07T06:15:21;6.20;;;3.67;;
72379;SDS011;60354;47.798;12.472;2023-09-07T06:17:47;4.78;;;3.90;;
72379;SDS011;60354;47.798;12.472;2023-09-07T06:20:13;5.68;;;3.80;;
72379;SDS011;60354;47.798;12.472;2023-09-07T06:22:38;7.75;;;3.80;;
72379;SDS011;60354;47.798;12.472;2023-09-07T06:25:04;4.72;;;3.78;;
72379;SDS011;60354;47.798;12.472;2023-09-07T06:27:30;5.07;;;4.20;;
72379;SDS011;60354;47.798;12.472;2023-09-07T06:29:56;8.15;;;4.07;;
72379;SDS011;60354;47.798;12.472;2023-09-07T06:32:21;4.88;;;4.20;;
72379;SDS011;60354;47.798;12.472;2023-09-07T06:34:47;6.93;;;4.30;;
72379;SDS011;60354;47.798;12.472;2023-09-07T06:37:13;7.97;;;4.40;;
72379;SDS011;60354;47.798;12.472;2023-09-07T06:39:39;6.47;;;4.40;;
72379;SDS011;60354;47.798;12.472;2023-09-07T06:42:08;4.95;;;4.00;;
72379;SDS011;60354;47.798;12.472;2023-09-07T06:44:42;5.10;;;3.88;;
72379;SDS011;60354;47.798;12.472;2023-09-07T06:47:10;7.00;;;4.07;;
72379;SDS011;60354;47.798;12.472;2023-09-07T06:49:37;5.93;;;4.13;;
72379;SDS011;60354;47.798;12.472;2023-09-07T06:52:03;6.28;;;4.45;;
72379;SDS011;60354;47.798;12.472;2023-09-07T06:54:29;6.57;;;4.30;;
72379;SDS011;60354;47.798;12.472;2023-09-07T06:56:55;6.40;;;4.45;;
72379;SDS011;60354;47.798;12.472;2023-09-07T06:59:21;6.72;;;4.65;;
72379;SDS011;60354;47.798;12.472;2023-09-07T07:01:46;5.65;;;4.72;;
72379;SDS011;60354;47.798;12.472;2023-09-07T07:04:12;7.03;;;4.68;;
72379;SDS011;60354;47.798;12.472;2023-09-07T07:06:37;6.30;;;4.68;;
72379;SDS011;60354;47.798;12.472;2023-09-07T07:09:05;9.75;;;4.97;;
72379;SDS011;60354;47.798;12.472;2023-09-07T07:11:31;6.03;;;4.57;;
72379;SDS011;60354;47.798;12.472;2023-09-07T07:13:56;6.20;;;4.53;;
72379;SDS011;60354;47.798;12.472;2023-09-07T07:16:22;7.20;;;4.95;;
72379;SDS011;60354;47.798;12.472;2023-09-07T07:18:49;6.07;;;4.97;;
72379;SDS011;60354;47.798;12.472;2023-09-07T07:21:15;7.10;;;6.00;;
72379;SDS011;60354;47.798;12.472;2023-09-07T07:23:41;7.30;;;5.28;;
72379;SDS011;60354;47.798;12.472;2023-09-07T07:26:07;7.10;;;5.22;;
72379;SDS011;60354;47.798;12.472;2023-09-07T07:28:34;8.52;;;5.85;;
72379;SDS011;60354;47.798;12.472;2023-09-07T07:31:06;7.07;;;5.78;;
72379;SDS011;60354;47.798;12.472;2023-09-07T07:33:33;10.30;;;5.90;;
72379;SDS011;60354;47.798;12.472;2023-09-07T07:35:59;7.93;;;5.35;;
72379;SDS011;60354;47.798;12.472;2023-09-07T07:38:24;8.20;;;5.43;;
72379;SDS011;60354;47.798;12.472;2023-09-07T07:40:51;7.32;;;5.68;;
72379;SDS011;60354;47.798;12.472;2023-09-07T07:43:18;9.70;;;5.82;;
72379;SDS011;60354;47.798;12.472;2023-09-07T07:45:44;11.88;;;6.40;;
72379;SDS011;60354;47.798;12.472;2023-09-07T07:48:10;9.70;;;6.15;;
72379;SDS011;60354;47.798;12.472;2023-09-07T07:50:38;8.60;;;6.47;;
72379;SDS011;60354;47.798;12.472;2023-09-07T07:53:05;8.45;;;6.65;;
72379;SDS011;60354;47.798;12.472;2023-09-07T07:55:38;7.97;;;6.35;;
72379;SDS011;60354;47.798;12.472;2023-09-07T07:58:06;8.32;;;5.63;;
72379;SDS011;60354;47.798;12.472;2023-09-07T08:00:36;8.18;;;4.75;;
72379;SDS011;60354;47.798;12.472;2023-09-07T08:03:03;6.70;;;4.40;;
72379;SDS011;60354;47.798;12.472;2023-09-07T08:05:31;6.55;;;4.38;;
72379;SDS011;60354;47.798;12.472;2023-09-07T08:07:57;8.38;;;4.70;;
72379;SDS011;60354;47.798;12.472;2023-09-07T08:10:23;7.93;;;4.50;;
72379;SDS011;60354;47.798;12.472;2023-09-07T08:12:52;6.40;;;4.78;;
72379;SDS011;60354;47.798;12.472;2023-09-07T08:15:20;8.50;;;4.18;;
72379;SDS011;60354;47.798;12.472;2023-09-07T08:17:48;5.82;;;4.00;;
72379;SDS011;60354;47.798;12.472;2023-09-07T08:20:14;7.70;;;4.20;;
72379;SDS011;60354;47.798;12.472;2023-09-07T08:22:40;7.47;;;4.00;;
72379;SDS011;60354;47.798;12.472;2023-09-07T08:25:08;5.05;;;4.07;;
72379;SDS011;60354;47.798;12.472;2023-09-07T08:27:34;5.20;;;3.95;;
72379;SDS011;60354;47.798;12.472;2023-09-07T08:30:00;4.75;;;4.05;;
72379;SDS011;60354;47.798;12.472;2023-09-07T08:32:26;5.30;;;3.78;;
72379;SDS011;60354;47.798;12.472;2023-09-07T08:34:52;5.75;;;3.88;;
72379;SDS011;60354;47.798;12.472;2023-09-07T08:37:21;5.40;;;4.28;;
72379;SDS011;60354;47.798;12.472;2023-09-07T08:39:47;5.95;;;3.70;;
72379;SDS011;60354;47.798;12.472;2023-09-07T08:42:12;7.72;;;4.00;;
72379;SDS011;60354;47.798;12.472;2023-09-07T08:44:38;5.05;;;3.80;;
72379;SDS011;60354;47.798;12.472;2023-09-07T08:47:07;6.57;;;3.70;;
72379;SDS011;60354;47.798;12.472;2023-09-07T08:49:33;4.88;;;3.65;;
72379;SDS011;60354;47.798;12.472;2023-09-07T08:51:59;4.35;;;3.50;;
72379;SDS011;60354;47.798;12.472;2023-09-07T08:54:26;6.35;;;3.50;;
72379;SDS011;60354;47.798;12.472;2023-09-07T08:56:52;6.55;;;3.70;;
72379;SDS011;60354;47.798;12.472;2023-09-07T08:59:18;6.75;;;3.85;;
72379;SDS011;60354;47.798;12.472;2023-09-07T09:01:43;4.82;;;3.70;;
72379;SDS011;60354;47.798;12.472;2023-09-07T09:04:09;5.18;;;3.70;;
72379;SDS011;60354;47.798;12.472;2023-09-07T09:06:34;4.57;;;3.72;;
72379;SDS011;60354;47.798;12.472;2023-09-07T09:09:00;5.65;;;3.80;;
72379;SDS011;60354;47.798;12.472;2023-09-07T09:11:25;6.85;;;3.42;;
72379;SDS011;60354;47.798;12.472;2023-09-07T09:13:53;6.53;;;4.00;;
72379;SDS011;60354;47.798;12.472;2023-09-07T09:16:19;5.55;;;4.00;;
72379;SDS011;60354;47.798;12.472;2023-09-07T09:18:49;5.38;;;3.88;;
72379;SDS011;60354;47.798;12.472;2023-09-07T09:21:22;6.13;;;3.65;;
72379;SDS011;60354;47.798;12.472;2023-09-07T09:23:50;6.18;;;4.05;;
72379;SDS011;60354;47.798;12.472;2023-09-07T09:26:18;5.20;;;3.97;;
72379;SDS011;60354;47.798;12.472;2023-09-07T09:28:44;6.20;;;4.10;;
72379;SDS011;60354;47.798;12.472;2023-09-07T09:31:10;4.95;;;4.03;;
72379;SDS011;60354;47.798;12.472;2023-09-07T09:33:42;5.65;;;3.80;;
72379;SDS011;60354;47.798;12.472;2023-09-07T09:36:13;4.80;;;3.83;;
72379;SDS011;60354;47.798;12.472;2023-09-07T09:38:39;8.23;;;4.82;;
72379;SDS011;60354;47.798;12.472;2023-09-07T09:41:05;7.05;;;5.13;;
72379;SDS011;60354;47.798;12.472;2023-09-07T09:43:31;6.45;;;4.78;;
72379;SDS011;60354;47.798;12.472;2023-09-07T09:45:57;8.32;;;5.60;;
72379;SDS011;60354;47.798;12.472;2023-09-07T09:48:23;7.80;;;5.60;;
72379;SDS011;60354;47.798;12.472;2023-09-07T09:50:49;6.07;;;5.32;;
72379;SDS011;60354;47.798;12.472;2023-09-07T09:53:16;7.25;;;5.45;;
72379;SDS011;60354;47.798;12.472;2023-09-07T09:55:47;6.82;;;5.28;;
72379;SDS011;60354;47.798;12.472;2023-09-07T09:58:13;6.10;;;4.60;;
72379;SDS011;60354;47.798;12.472;2023-09-07T10:00:43;7.03;;;4.35;;
72379;SDS011;60354;47.798;12.472;2023-09-07T10:03:24;5.93;;;4.00;;
72379;SDS011;60354;47.798;12.472;2023-09-07T10:05:52;5.38;;;3.80;;
72379;SDS011;60354;47.798;12.472;2023-09-07T10:08:18;4.95;;;3.70;;
72379;SDS011;60354;47.798;12.472;2023-09-07T10:10:49;5.05;;;3.63;;
72379;SDS011;60354;47.798;12.472;2023-09-07T10:13:30;4.68;;;3.38;;
72379;SDS011;60354;47.798;12.472;2023-09-07T10:16:03;5.07;;;3.40;;
72379;SDS011;60354;47.798;12.472;2023-09-07T10:18:38;4.25;;;3.40;;
72379;SDS011;60354;47.798;12.472;2023-09-07T10:21:04;5.82;;;3.40;;
72379;SDS011;60354;47.798;12.472;2023-09-07T10:23:35;6.28;;;3.35;;
72379;SDS011;60354;47.798;12.472;2023-09-07T10:26:02;8.35;;;4.20;;
72379;SDS011;60354;47.798;12.472;2023-09-07T10:28:29;7.55;;;4.18;;
72379;SDS011;60354;47.798;12.472;2023-09-07T10:30:58;6.45;;;3.67;;
72379;SDS011;60354;47.798;12.472;2023-09-07T10:33:25;5.65;;;3.90;;
72379;SDS011;60354;47.798;12.472;2023-09-07T10:35:51;5.60;;;4.00;;
72379;SDS011;60354;47.798;12.472;2023-09-07T10:38:17;5.25;;;3.55;;
72379;SDS011;60354;47.798;12.472;2023-09-07T10:40:47;7.18;;;4.00;;
72379;SDS011;60354;47.798;12.472;2023-09-07T10:43:12;8.98;;;4.32;;
72379;SDS011;60354;47.798;12.472;2023-09-07T10:45:38;7.78;;;3.95;;
72379;SDS011;60354;47.798;12.472;2023-09-07T10:48:04;7.03;;;4.20;;
72379;SDS011;60354;47.798;12.472;2023-09-07T10:50:30;11.57;;;4.07;;
72379;SDS011;60354;47.798;12.472;2023-09-07T10:53:06;5.15;;;4.20;;
72379;SDS011;60354;47.798;12.472;2023-09-07T10:55:36;9.68;;;4.28;;
72379;SDS011;60354;47.798;12.472;2023-09-07T10:58:04;5.25;;;3.65;;
72379;SDS011;60354;47.798;12.472;2023-09-07T11:00:29;6.20;;;3.70;;
72379;SDS011;60354;47.798;12.472;2023-09-07T11:02:55;6.38;;;4.10;;
72379;SDS011;60354;47.798;12.472;2023-09-07T11:05:20;5.45;;;4.50;;
72379;SDS011;60354;47.798;12.472;2023-09-07T11:07:46;7.90;;;4.07;;
72379;SDS011;60354;47.798;12.472;2023-09-07T11:10:11;6.50;;;3.85;;
72379;SDS011;60354;47.798;12.472;2023-09-07T11:12:38;9.80;;;4.53;;
72379;SDS011;60354;47.798;12.472;2023-09-07T11:15:05;9.07;;;4.30;;
72379;SDS011;60354;47.798;12.472;2023-09-07T11:17:33;5.40;;;4.20;;
72379;SDS011;60354;47.798;12.472;2023-09-07T11:19:58;7.68;;;4.47;;
72379;SDS011;60354;47.798;12.472;2023-09-07T11:22:30;7.10;;;5.00;;
72379;SDS011;60354;47.798;12.472;2023-09-07T11:24:55;7.70;;;4.53;;
72379;SDS011;60354;47.798;12.472;2023-09-07T11:27:21;8.75;;;4.70;;
72379;SDS011;60354;47.798;12.472;2023-09-07T11:29:51;6.05;;;4.30;;
72379;SDS011;60354;47.798;12.472;2023-09-07T11:32:17;6.82;;;4.63;;
72379;SDS011;60354;47.798;12.472;2023-09-07T11:34:50;6.80;;;4.30;;
72379;SDS011;60354;47.798;12.472;2023-09-07T11:37:17;6.20;;;4.25;;
72379;SDS011;60354;47.798;12.472;2023-09-07T11:39:43;6.70;;;4.13;;
72379;SDS011;60354;47.798;12.472;2023-09-07T11:42:09;5.50;;;3.88;;
72379;SDS011;60354;47.798;12.472;2023-09-07T11:44:35;6.07;;;4.10;;
72379;SDS011;60354;47.798;12.472;2023-09-07T11:47:00;8.38;;;4.32;;
72379;SDS011;60354;47.798;12.472;2023-09-07T11:49:26;5.63;;;4.20;;
72379;SDS011;60354;47.798;12.472;2023-09-07T11:51:51;8.02;;;4.72;;
72379;SDS011;60354;47.798;12.472;2023-09-07T11:54:17;7.35;;;4.50;;
72379;SDS011;60354;47.798;12.472;2023-09-07T11:56:42;6.97;;;4.47;;
72379;SDS011;60354;47.798;12.472;2023-09-07T11:59:10;6.03;;;4.32;;
72379;SDS011;60354;47.798;12.472;2023-09-07T12:01:36;7.63;;;4.45;;
72379;SDS011;60354;47.798;12.472;2023-09-07T12:04:02;8.63;;;4.40;;
72379;SDS011;60354;47.798;12.472;2023-09-07T12:06:29;6.25;;;4.25;;
72379;SDS011;60354;47.798;12.472;2023-09-07T12:09:04;5.13;;;4.00;;
72379;SDS011;60354;47.798;12.472;2023-09-07T12:11:34;6.30;;;4.38;;
72379;SDS011;60354;47.798;12.472;2023-09-07T12:14:00;7.15;;;4.05;;
72379;SDS011;60354;47.798;12.472;2023-09-07T12:16:27;6.30;;;4.20;;
72379;SDS011;60354;47.798;12.472;2023-09-07T12:18:52;8.32;;;4.20;;
72379;SDS011;60354;47.798;12.472;2023-09-07T12:21:18;5.68;;;3.95;;
72379;SDS011;60354;47.798;12.472;2023-09-07T12:23:44;6.97;;;4.07;;
72379;SDS011;60354;47.798;12.472;2023-09-07T12:26:10;6.68;;;3.90;;
72379;SDS011;60354;47.798;12.472;2023-09-07T12:28:35;6.40;;;3.88;;
72379;SDS011;60354;47.798;12.472;2023-09-07T12:31:01;8.77;;;4.30;;
72379;SDS011;60354;47.798;12.472;2023-09-07T12:33:27;6.53;;;3.67;;
72379;SDS011;60354;47.798;12.472;2023-09-07T12:35:55;10.02;;;4.18;;
72379;SDS011;60354;47.798;12.472;2023-09-07T12:38:20;5.10;;;3.80;;
72379;SDS011;60354;47.798;12.472;2023-09-07T12:40:49;6.43;;;4.10;;
72379;SDS011;60354;47.798;12.472;2023-09-07T12:43:15;9.13;;;4.00;;
72379;SDS011;60354;47.798;12.472;2023-09-07T12:45:40;7.22;;;3.80;;
72379;SDS011;60354;47.798;12.472;2023-09-07T12:48:07;6.22;;;4.20;;
72379;SDS011;60354;47.798;12.472;2023-09-07T12:50:32;6.28;;;4.18;;
72379;SDS011;60354;47.798;12.472;2023-09-07T12:52:57;7.00;;;4.13;;
72379;SDS011;60354;47.798;12.472;2023-09-07T12:55:23;6.93;;;4.28;;
72379;SDS011;60354;47.798;12.472;2023-09-07T12:57:49;6.20;;;4.20;;
72379;SDS011;60354;47.798;12.472;2023-09-07T13:00:15;8.63;;;4.30;;
72379;SDS011;60354;47.798;12.472;2023-09-07T13:02:41;5.60;;;3.97;;
72379;SDS011;60354;47.798;12.472;2023-09-07T13:05:07;4.97;;;3.60;;
72379;SDS011;60354;47.798;12.472;2023-09-07T13:07:33;5.38;;;4.05;;
72379;SDS011;60354;47.798;12.472;2023-09-07T13:10:00;6.80;;;4.10;;
72379;SDS011;60354;47.798;12.472;2023-09-07T13:12:29;6.20;;;4.30;;
72379;SDS011;60354;47.798;12.472;2023-09-07T13:14:56;6.30;;;4.30;;
72379;SDS011;60354;47.798;12.472;2023-09-07T13:17:22;4.60;;;4.03;;
72379;SDS011;60354;47.798;12.472;2023-09-07T13:19:47;5.00;;;3.90;;
72379;SDS011;60354;47.798;12.472;2023-09-07T13:22:13;6.72;;;4.05;;
72379;SDS011;60354;47.798;12.472;2023-09-07T13:24:39;6.55;;;4.30;;
72379;SDS011;60354;47.798;12.472;2023-09-07T13:27:04;7.18;;;3.97;;
72379;SDS011;60354;47.798;12.472;2023-09-07T13:29:30;8.15;;;4.10;;
72379;SDS011;60354;47.798;12.472;2023-09-07T13:31:59;5.80;;;3.83;;
72379;SDS011;60354;47.798;12.472;2023-09-07T13:34:25;5.63;;;4.07;;
72379;SDS011;60354;47.798;12.472;2023-09-07T13:36:50;10.32;;;4.20;;
72379;SDS011;60354;47.798;12.472;2023-09-07T13:39:16;5.22;;;3.83;;
72379;SDS011;60354;47.798;12.472;2023-09-07T13:41:42;6.07;;;4.20;;
72379;SDS011;60354;47.798;12.472;2023-09-07T13:44:07;6.32;;;3.97;;
72379;SDS011;60354;47.798;12.472;2023-09-07T13:46:33;8.50;;;4.30;;
72379;SDS011;60354;47.798;12.472;2023-09-07T13:48:58;7.25;;;3.97;;
72379;SDS011;60354;47.798;12.472;2023-09-07T13:51:24;6.18;;;4.00;;
72379;SDS011;60354;47.798;12.472;2023-09-07T13:53:50;4.88;;;3.50;;
72379;SDS011;60354;47.798;12.472;2023-09-07T13:56:17;9.80;;;3.80;;
72379;SDS011;60354;47.798;12.472;2023-09-07T13:58:43;5.03;;;3.53;;
72379;SDS011;60354;47.798;12.472;2023-09-07T14:01:09;5.85;;;3.58;;
72379;SDS011;60354;47.798;12.472;2023-09-07T14:03:34;5.43;;;3.53;;
72379;SDS011;60354;47.798;12.472;2023-09-07T14:06:00;7.22;;;3.90;;
72379;SDS011;60354;47.798;12.472;2023-09-07T14:08:26;3.80;;;3.40;;
72379;SDS011;60354;47.798;12.472;2023-09-07T14:10:52;4.05;;;3.15;;
72379;SDS011;60354;47.798;12.472;2023-09-07T14:13:18;4.32;;;3.10;;
72379;SDS011;60354;47.798;12.472;2023-09-07T14:15:44;4.55;;;3.47;;
72379;SDS011;60354;47.798;12.472;2023-09-07T14:18:10;4.90;;;3.63;;
72379;SDS011;60354;47.798;12.472;2023-09-07T14:20:35;4.63;;;3.30;;
72379;SDS011;60354;47.798;12.472;2023-09-07T14:23:01;7.15;;;3.30;;
72379;SDS011;60354;47.798;12.472;2023-09-07T14:25:27;5.63;;;3.55;;
72379;SDS011;60354;47.798;12.472;2023-09-07T14:27:52;5.05;;;3.28;;
72379;SDS011;60354;47.798;12.472;2023-09-07T14:30:18;3.92;;;3.17;;